sensor_id;sensor_type;location;lat;lon;timestamp;pressure;altitude;pressure_sealevel;temperature;humidity
64908;BME280;69061;52.236;5.188;2024-03-17T00:00:16;102301.41;;;8.18;76.47
64908;BME280;69061;52.236;5.188;2024-03-17T00:02:43;102299.38;;;8.23;76.13
64908;BME280;69061;52.236;5.188;2024-03-17T00:05:10;102301.25;;;8.32;77.60
64908;BME280;69061;52.236;5.188;2024-03-17T00:07:40;102295.00;;;8.27;76.08
64908;BME280;69061;52.236;5.188;2024-03-17T00:10:08;102295.31;;;8.26;75.39
64908;BME280;69061;52.236;5.188;2024-03-17T00:12:35;102300.94;;;8.24;75.30
64908;BME280;69061;52.236;5.188;2024-03-17T00:15:04;102301.09;;;8.19;75.07
64908;BME280;69061;52.236;5.188;2024-03-17T00:17:33;102298.25;;;8.16;74.32
64908;BME280;69061;52.236;5.188;2024-03-17T00:20:00;102297.63;;;8.10;74.51
64908;BME280;69061;52.236;5.188;2024-03-17T00:22:35;102286.72;;;8.12;74.24
64908;BME280;69061;52.236;5.188;2024-03-17T00:25:08;102288.47;;;8.16;74.73
64908;BME280;69061;52.236;5.188;2024-03-17T00:27:40;102280.97;;;8.18;75.87
64908;BME280;69061;52.236;5.188;2024-03-17T00:30:10;102278.50;;;8.22;76.78
64908;BME280;69061;52.236;5.188;2024-03-17T00:32:38;102281.16;;;8.22;75.62
64908;BME280;69061;52.236;5.188;2024-03-17T00:35:06;102281.31;;;8.25;75.25
64908;BME280;69061;52.236;5.188;2024-03-17T00:37:42;102278.66;;;8.25;75.17
64908;BME280;69061;52.236;5.188;2024-03-17T00:40:11;102276.94;;;8.21;74.33
64908;BME280;69061;52.236;5.188;2024-03-17T00:42:42;102276.47;;;8.27;78.05
64908;BME280;69061;52.236;5.188;2024-03-17T00:45:09;102277.09;;;8.42;80.36
64908;BME280;69061;52.236;5.188;2024-03-17T00:47:36;102268.56;;;8.54;79.47
64908;BME280;69061;52.236;5.188;2024-03-17T00:50:12;102273.09;;;8.62;79.77
64908;BME280;69061;52.236;5.188;2024-03-17T00:52:39;102273.53;;;8.73;81.55
64908;BME280;69061;52.236;5.188;2024-03-17T00:55:06;102274.31;;;8.73;78.08
64908;BME280;69061;52.236;5.188;2024-03-17T00:57:36;102275.06;;;8.74;77.75
64908;BME280;69061;52.236;5.188;2024-03-17T01:00:03;102271.22;;;8.71;78.28
64908;BME280;69061;52.236;5.188;2024-03-17T01:02:33;102264.63;;;8.77;79.51
64908;BME280;69061;52.236;5.188;2024-03-17T01:04:59;102263.06;;;8.76;78.72
64908;BME280;69061;52.236;5.188;2024-03-17T01:07:26;102262.47;;;8.71;76.37
64908;BME280;69061;52.236;5.188;2024-03-17T01:09:54;102261.25;;;8.59;75.02
64908;BME280;69061;52.236;5.188;2024-03-17T01:12:20;102257.97;;;8.54;76.42
64908;BME280;69061;52.236;5.188;2024-03-17T01:14:49;102259.19;;;8.56;78.44
64908;BME280;69061;52.236;5.188;2024-03-17T01:17:15;102250.47;;;8.65;79.92
64908;BME280;69061;52.236;5.188;2024-03-17T01:19:44;102245.19;;;8.65;78.27
64908;BME280;69061;52.236;5.188;2024-03-17T01:22:11;102232.69;;;8.56;77.24
64908;BME280;69061;52.236;5.188;2024-03-17T01:24:38;102240.16;;;8.63;79.58
64908;BME280;69061;52.236;5.188;2024-03-17T01:27:11;102246.41;;;8.67;78.28
64908;BME280;69061;52.236;5.188;2024-03-17T01:29:39;102236.13;;;8.66;78.25
64908;BME280;69061;52.236;5.188;2024-03-17T01:32:08;102228.97;;;8.66;78.43
64908;BME280;69061;52.236;5.188;2024-03-17T01:34:33;102239.22;;;8.76;77.97
64908;BME280;69061;52.236;5.188;2024-03-17T01:37:00;102227.38;;;8.74;77.15
64908;BME280;69061;52.236;5.188;2024-03-17T01:39:26;102234.09;;;8.71;75.68
64908;BME280;69061;52.236;5.188;2024-03-17T01:41:53;102218.50;;;8.70;76.47
64908;BME280;69061;52.236;5.188;2024-03-17T01:44:23;102210.72;;;8.65;75.95
64908;BME280;69061;52.236;5.188;2024-03-17T01:46:51;102218.50;;;8.70;75.78
64908;BME280;69061;52.236;5.188;2024-03-17T01:49:21;102187.84;;;8.51;74.56
64908;BME280;69061;52.236;5.188;2024-03-17T01:51:50;102211.94;;;8.67;74.63
64908;BME280;69061;52.236;5.188;2024-03-17T01:54:15;102216.47;;;8.67;73.81
64908;BME280;69061;52.236;5.188;2024-03-17T01:56:43;102213.38;;;8.65;74.39
64908;BME280;69061;52.236;5.188;2024-03-17T01:59:10;102201.66;;;8.66;74.78
64908;BME280;69061;52.236;5.188;2024-03-17T02:01:37;102205.56;;;8.68;75.31
64908;BME280;69061;52.236;5.188;2024-03-17T02:04:04;102203.22;;;8.67;74.50
64908;BME280;69061;52.236;5.188;2024-03-17T02:06:34;102200.13;;;8.65;75.82
64908;BME280;69061;52.236;5.188;2024-03-17T02:08:59;102203.22;;;8.67;74.50
64908;BME280;69061;52.236;5.188;2024-03-17T02:11:27;102208.69;;;8.70;75.60
64908;BME280;69061;52.236;5.188;2024-03-17T02:13:54;102213.34;;;8.73;74.86
64908;BME280;69061;52.236;5.188;2024-03-17T02:16:21;102198.22;;;8.74;75.04
64908;BME280;69061;52.236;5.188;2024-03-17T02:18:47;102199.59;;;8.80;76.09
64908;BME280;69061;52.236;5.188;2024-03-17T02:21:14;102197.44;;;8.82;76.32
64908;BME280;69061;52.236;5.188;2024-03-17T02:23:42;102194.31;;;8.80;75.23
64908;BME280;69061;52.236;5.188;2024-03-17T02:26:10;102195.06;;;8.81;75.03
64908;BME280;69061;52.236;5.188;2024-03-17T02:28:40;102182.25;;;8.91;76.96
64908;BME280;69061;52.236;5.188;2024-03-17T02:31:08;102187.09;;;8.89;76.71
64908;BME280;69061;52.236;5.188;2024-03-17T02:33:36;102190.09;;;8.88;75.53
64908;BME280;69061;52.236;5.188;2024-03-17T02:36:04;102182.63;;;8.81;76.00
64908;BME280;69061;52.236;5.188;2024-03-17T02:38:32;102172.19;;;8.67;75.17
64908;BME280;69061;52.236;5.188;2024-03-17T02:41:20;102168.75;;;8.67;75.86
64908;BME280;69061;52.236;5.188;2024-03-17T02:43:47;102167.03;;;8.71;76.18
64908;BME280;69061;52.236;5.188;2024-03-17T02:46:13;102163.13;;;8.77;76.78
64908;BME280;69061;52.236;5.188;2024-03-17T02:48:40;102174.50;;;8.86;76.10
64908;BME280;69061;52.236;5.188;2024-03-17T02:51:11;102176.19;;;8.91;77.15
64908;BME280;69061;52.236;5.188;2024-03-17T02:53:38;102172.56;;;8.96;75.92
64908;BME280;69061;52.236;5.188;2024-03-17T02:56:08;102164.59;;;8.96;75.47
64908;BME280;69061;52.236;5.188;2024-03-17T02:58:36;102157.78;;;8.86;76.41
64908;BME280;69061;52.236;5.188;2024-03-17T03:01:05;102167.91;;;8.92;76.49
64908;BME280;69061;52.236;5.188;2024-03-17T03:03:35;102166.66;;;8.90;76.95
64908;BME280;69061;52.236;5.188;2024-03-17T03:06:02;102170.28;;;8.85;77.39
64908;BME280;69061;52.236;5.188;2024-03-17T03:08:36;102176.50;;;8.81;77.52
64908;BME280;69061;52.236;5.188;2024-03-17T03:11:04;102161.09;;;8.83;76.88
64908;BME280;69061;52.236;5.188;2024-03-17T03:13:32;102169.97;;;8.78;76.02
64908;BME280;69061;52.236;5.188;2024-03-17T03:16:01;102166.56;;;8.77;76.59
64908;BME280;69061;52.236;5.188;2024-03-17T03:18:28;102166.53;;;8.86;78.23
64908;BME280;69061;52.236;5.188;2024-03-17T03:20:58;102170.13;;;8.90;77.00
64908;BME280;69061;52.236;5.188;2024-03-17T03:23:24;102171.66;;;8.91;75.46
64908;BME280;69061;52.236;5.188;2024-03-17T03:25:57;102172.75;;;8.90;75.09
64908;BME280;69061;52.236;5.188;2024-03-17T03:28:26;102174.28;;;8.91;76.44
64908;BME280;69061;52.236;5.188;2024-03-17T03:30:53;102167.47;;;8.90;76.74
64908;BME280;69061;52.236;5.188;2024-03-17T03:33:23;102169.31;;;8.99;77.21
64908;BME280;69061;52.236;5.188;2024-03-17T03:35:50;102161.47;;;9.02;78.13
64908;BME280;69061;52.236;5.188;2024-03-17T03:38:18;102149.75;;;9.03;77.01
64908;BME280;69061;52.236;5.188;2024-03-17T03:40:45;102157.06;;;9.15;77.65
64908;BME280;69061;52.236;5.188;2024-03-17T03:43:13;102143.19;;;9.09;76.70
64908;BME280;69061;52.236;5.188;2024-03-17T03:45:40;102149.53;;;9.17;76.25
64908;BME280;69061;52.236;5.188;2024-03-17T03:48:09;102137.19;;;9.21;76.62
64908;BME280;69061;52.236;5.188;2024-03-17T03:50:40;102133.13;;;9.24;77.44
64908;BME280;69061;52.236;5.188;2024-03-17T03:53:07;102132.50;;;9.27;77.82
64908;BME280;69061;52.236;5.188;2024-03-17T03:55:33;102132.94;;;9.29;77.61
64908;BME280;69061;52.236;5.188;2024-03-17T03:58:00;102106.00;;;9.18;77.71
64908;BME280;69061;52.236;5.188;2024-03-17T04:00:29;102120.47;;;9.30;77.43
64908;BME280;69061;52.236;5.188;2024-03-17T04:02:58;102116.25;;;9.29;77.92
64908;BME280;69061;52.236;5.188;2024-03-17T04:05:27;102109.22;;;9.33;77.71
64908;BME280;69061;52.236;5.188;2024-03-17T04:07:55;102104.22;;;9.31;77.51
64908;BME280;69061;52.236;5.188;2024-03-17T04:10:23;102104.03;;;9.36;76.82
64908;BME280;69061;52.236;5.188;2024-03-17T04:12:50;102102.47;;;9.35;76.19
64908;BME280;69061;52.236;5.188;2024-03-17T04:15:18;102097.28;;;9.39;77.31
64908;BME280;69061;52.236;5.188;2024-03-17T04:17:45;102094.19;;;9.37;77.53
64908;BME280;69061;52.236;5.188;2024-03-17T04:20:13;102090.22;;;9.43;77.96
64908;BME280;69061;52.236;5.188;2024-03-17T04:22:40;102081.38;;;9.39;78.65
64908;BME280;69061;52.236;5.188;2024-03-17T04:25:09;102097.19;;;9.35;79.41
64908;BME280;69061;52.236;5.188;2024-03-17T04:27:36;102091.72;;;9.32;78.54
64908;BME280;69061;52.236;5.188;2024-03-17T04:30:05;102085.66;;;9.31;77.60
64908;BME280;69061;52.236;5.188;2024-03-17T04:32:32;102077.03;;;9.34;78.03
64908;BME280;69061;52.236;5.188;2024-03-17T04:35:00;102073.81;;;9.29;77.38
64908;BME280;69061;52.236;5.188;2024-03-17T04:37:28;102070.06;;;9.30;77.27
64908;BME280;69061;52.236;5.188;2024-03-17T04:39:55;102065.06;;;9.28;77.18
64908;BME280;69061;52.236;5.188;2024-03-17T04:42:24;102076.50;;;9.20;77.56
64908;BME280;69061;52.236;5.188;2024-03-17T04:44:52;102087.91;;;9.20;78.22
64908;BME280;69061;52.236;5.188;2024-03-17T04:47:20;102091.31;;;9.21;78.14
64908;BME280;69061;52.236;5.188;2024-03-17T04:49:47;102095.97;;;9.24;78.80
64908;BME280;69061;52.236;5.188;2024-03-17T04:52:14;102088.75;;;9.12;78.13
64908;BME280;69061;52.236;5.188;2024-03-17T04:54:42;102086.84;;;9.13;78.21
64908;BME280;69061;52.236;5.188;2024-03-17T04:57:09;102091.69;;;9.10;78.23
64908;BME280;69061;52.236;5.188;2024-03-17T04:59:37;102090.75;;;9.15;77.56
64908;BME280;69061;52.236;5.188;2024-03-17T05:02:04;102079.88;;;9.08;77.75
64908;BME280;69061;52.236;5.188;2024-03-17T05:04:30;102080.56;;;8.96;76.69
64908;BME280;69061;52.236;5.188;2024-03-17T05:06:57;102084.94;;;8.92;76.95
64908;BME280;69061;52.236;5.188;2024-03-17T05:09:25;102076.34;;;8.95;78.14
64908;BME280;69061;52.236;5.188;2024-03-17T05:11:52;102071.38;;;8.93;77.20
64908;BME280;69061;52.236;5.188;2024-03-17T05:14:19;102073.69;;;8.95;77.22
64908;BME280;69061;52.236;5.188;2024-03-17T05:16:51;102074.34;;;8.92;75.81
64908;BME280;69061;52.236;5.188;2024-03-17T05:19:18;102071.53;;;8.88;76.65
64908;BME280;69061;52.236;5.188;2024-03-17T05:21:46;102074.84;;;8.85;76.74
64908;BME280;69061;52.236;5.188;2024-03-17T05:24:12;102075.50;;;8.82;76.76
64908;BME280;69061;52.236;5.188;2024-03-17T05:26:39;102065.50;;;8.79;76.78
64908;BME280;69061;52.236;5.188;2024-03-17T05:29:08;102076.41;;;8.86;76.82
64908;BME280;69061;52.236;5.188;2024-03-17T05:31:35;102067.72;;;8.77;76.85
64908;BME280;69061;52.236;5.188;2024-03-17T05:34:05;102066.91;;;8.76;76.35
64908;BME280;69061;52.236;5.188;2024-03-17T05:36:32;102066.41;;;8.83;76.90
64908;BME280;69061;52.236;5.188;2024-03-17T05:38:59;102062.19;;;8.91;77.90
64908;BME280;69061;52.236;5.188;2024-03-17T05:41:27;102068.06;;;8.97;77.47
64908;BME280;69061;52.236;5.188;2024-03-17T05:43:56;102068.84;;;8.97;77.56
64908;BME280;69061;52.236;5.188;2024-03-17T05:46:24;102076.94;;;9.01;77.67
64908;BME280;69061;52.236;5.188;2024-03-17T05:48:52;102066.41;;;8.83;76.12
64908;BME280;69061;52.236;5.188;2024-03-17T05:51:20;102069.81;;;8.92;77.54
64908;BME280;69061;52.236;5.188;2024-03-17T05:53:46;102073.88;;;8.90;77.05
64908;BME280;69061;52.236;5.188;2024-03-17T05:56:14;102073.75;;;8.86;76.81
64908;BME280;69061;52.236;5.188;2024-03-17T05:58:41;102069.53;;;8.85;76.91
64908;BME280;69061;52.236;5.188;2024-03-17T06:01:08;102062.19;;;8.91;77.39
64908;BME280;69061;52.236;5.188;2024-03-17T06:03:37;102062.00;;;8.96;77.59
64908;BME280;69061;52.236;5.188;2024-03-17T06:06:05;102081.16;;;9.02;77.23
64908;BME280;69061;52.236;5.188;2024-03-17T06:08:36;102080.16;;;9.06;77.53
64908;BME280;69061;52.236;5.188;2024-03-17T06:11:04;102071.13;;;9.07;77.54
64908;BME280;69061;52.236;5.188;2024-03-17T06:13:31;102071.41;;;9.15;77.03
64908;BME280;69061;52.236;5.188;2024-03-17T06:15:58;102060.25;;;9.21;77.01
64908;BME280;69061;52.236;5.188;2024-03-17T06:18:26;102071.00;;;9.25;76.66
64908;BME280;69061;52.236;5.188;2024-03-17T06:20:53;102066.50;;;9.25;76.52
64908;BME280;69061;52.236;5.188;2024-03-17T06:23:23;102066.63;;;9.29;76.85
64908;BME280;69061;52.236;5.188;2024-03-17T06:25:51;102065.78;;;9.37;76.29
64908;BME280;69061;52.236;5.188;2024-03-17T06:28:19;102061.69;;;9.40;76.14
64908;BME280;69061;52.236;5.188;2024-03-17T06:30:54;102072.59;;;9.47;75.08
64908;BME280;69061;52.236;5.188;2024-03-17T06:33:21;102073.28;;;9.56;76.01
64908;BME280;69061;52.236;5.188;2024-03-17T06:35:48;102075.41;;;9.63;75.80
64908;BME280;69061;52.236;5.188;2024-03-17T06:38:14;102072.56;;;9.68;75.46
64908;BME280;69061;52.236;5.188;2024-03-17T06:40:41;102080.19;;;9.70;75.30
64908;BME280;69061;52.236;5.188;2024-03-17T06:43:10;102081.75;;;9.71;74.29
64908;BME280;69061;52.236;5.188;2024-03-17T06:45:37;102081.56;;;9.76;75.00
64908;BME280;69061;52.236;5.188;2024-03-17T06:48:04;102079.16;;;9.83;74.80
64908;BME280;69061;52.236;5.188;2024-03-17T06:50:32;102076.28;;;9.88;74.63
64908;BME280;69061;52.236;5.188;2024-03-17T06:53:00;102063.47;;;9.90;73.97
64908;BME280;69061;52.236;5.188;2024-03-17T06:55:27;102059.84;;;9.95;74.31
64908;BME280;69061;52.236;5.188;2024-03-17T06:57:53;102063.84;;;10.01;73.54
64908;BME280;69061;52.236;5.188;2024-03-17T07:00:22;102065.94;;;10.08;74.47
64908;BME280;69061;52.236;5.188;2024-03-17T07:02:51;102056.66;;;10.02;73.16
64908;BME280;69061;52.236;5.188;2024-03-17T07:05:17;102058.94;;;9.91;72.49
64908;BME280;69061;52.236;5.188;2024-03-17T07:07:44;102062.31;;;9.79;72.25
64908;BME280;69061;52.236;5.188;2024-03-17T07:10:12;102065.00;;;9.91;72.94
64908;BME280;69061;52.236;5.188;2024-03-17T07:12:41;102062.94;;;9.97;72.85
64908;BME280;69061;52.236;5.188;2024-03-17T07:15:10;102063.38;;;9.99;71.99
64908;BME280;69061;52.236;5.188;2024-03-17T07:17:39;102068.38;;;10.01;72.49
64908;BME280;69061;52.236;5.188;2024-03-17T07:20:07;102071.22;;;9.95;71.43
64908;BME280;69061;52.236;5.188;2024-03-17T07:22:38;102082.44;;;10.01;72.37
64908;BME280;69061;52.236;5.188;2024-03-17T07:25:05;102072.13;;;10.00;71.87
64908;BME280;69061;52.236;5.188;2024-03-17T07:27:32;102067.28;;;10.02;71.20
64908;BME280;69061;52.236;5.188;2024-03-17T07:29:59;102071.75;;;9.89;70.92
64908;BME280;69061;52.236;5.188;2024-03-17T07:32:26;102070.31;;;9.91;70.67
64908;BME280;69061;52.236;5.188;2024-03-17T07:34:54;102060.56;;;9.83;71.15
64908;BME280;69061;52.236;5.188;2024-03-17T07:37:20;102060.81;;;9.90;71.02
64908;BME280;69061;52.236;5.188;2024-03-17T07:39:47;102062.56;;;9.86;70.92
64908;BME280;69061;52.236;5.188;2024-03-17T07:42:15;102064.31;;;9.82;71.66
64908;BME280;69061;52.236;5.188;2024-03-17T07:44:43;102062.25;;;9.88;72.50
64908;BME280;69061;52.236;5.188;2024-03-17T07:47:10;102053.50;;;9.87;71.44
64908;BME280;69061;52.236;5.188;2024-03-17T07:49:37;102056.63;;;9.89;72.38
64908;BME280;69061;52.236;5.188;2024-03-17T07:52:06;102056.72;;;9.93;71.26
64908;BME280;69061;52.236;5.188;2024-03-17T07:54:32;102054.59;;;9.86;71.57
64908;BME280;69061;52.236;5.188;2024-03-17T07:57:00;102053.09;;;9.98;72.29
64908;BME280;69061;52.236;5.188;2024-03-17T07:59:27;102053.53;;;10.00;72.14
64908;BME280;69061;52.236;5.188;2024-03-17T08:01:56;102052.09;;;10.02;72.26
64908;BME280;69061;52.236;5.188;2024-03-17T08:04:22;102058.31;;;10.06;71.76
64908;BME280;69061;52.236;5.188;2024-03-17T08:06:49;102049.78;;;10.13;71.58
64908;BME280;69061;52.236;5.188;2024-03-17T08:09:17;102044.28;;;10.18;71.75
64908;BME280;69061;52.236;5.188;2024-03-17T08:11:44;102056.91;;;10.21;71.67
64908;BME280;69061;52.236;5.188;2024-03-17T08:14:12;102059.00;;;10.16;71.04
64908;BME280;69061;52.236;5.188;2024-03-17T08:16:42;102052.22;;;10.06;71.48
64908;BME280;69061;52.236;5.188;2024-03-17T08:19:09;102046.94;;;10.18;71.69
64908;BME280;69061;52.236;5.188;2024-03-17T08:21:35;102038.41;;;10.13;71.45
64908;BME280;69061;52.236;5.188;2024-03-17T08:24:02;102036.97;;;10.15;71.94
64908;BME280;69061;52.236;5.188;2024-03-17T08:26:31;102033.75;;;10.09;72.13
64908;BME280;69061;52.236;5.188;2024-03-17T08:28:57;102038.28;;;10.09;72.21
64908;BME280;69061;52.236;5.188;2024-03-17T08:31:24;102031.09;;;10.09;72.28
64908;BME280;69061;52.236;5.188;2024-03-17T08:33:51;102043.63;;;10.21;72.61
64908;BME280;69061;52.236;5.188;2024-03-17T08:36:18;102029.28;;;10.35;72.29
64908;BME280;69061;52.236;5.188;2024-03-17T08:38:45;102041.91;;;10.50;72.60
64908;BME280;69061;52.236;5.188;2024-03-17T08:41:13;102044.38;;;10.55;71.76
64908;BME280;69061;52.236;5.188;2024-03-17T08:43:42;102055.09;;;10.71;72.02
64908;BME280;69061;52.236;5.188;2024-03-17T08:46:09;102052.19;;;10.89;71.98
64908;BME280;69061;52.236;5.188;2024-03-17T08:48:38;102050.72;;;11.04;71.18
64908;BME280;69061;52.236;5.188;2024-03-17T08:51:06;102052.94;;;11.14;71.18
64908;BME280;69061;52.236;5.188;2024-03-17T08:53:34;102053.25;;;11.25;71.42
64908;BME280;69061;52.236;5.188;2024-03-17T08:56:03;102046.09;;;11.41;71.06
64908;BME280;69061;52.236;5.188;2024-03-17T08:58:31;102046.22;;;11.45;70.14
64908;BME280;69061;52.236;5.188;2024-03-17T09:01:04;102045.22;;;11.66;69.99
64908;BME280;69061;52.236;5.188;2024-03-17T09:03:32;102051.06;;;11.71;69.27
64908;BME280;69061;52.236;5.188;2024-03-17T09:05:58;102047.59;;;11.83;69.35
64908;BME280;69061;52.236;5.188;2024-03-17T09:08:26;102037.34;;;11.85;68.57
64908;BME280;69061;52.236;5.188;2024-03-17T09:10:54;102043.47;;;11.86;68.01
64908;BME280;69061;52.236;5.188;2024-03-17T09:13:22;102050.75;;;11.73;67.29
64908;BME280;69061;52.236;5.188;2024-03-17T09:15:53;102044.78;;;11.63;67.95
64908;BME280;69061;52.236;5.188;2024-03-17T09:18:23;102045.47;;;11.60;68.11
64908;BME280;69061;52.236;5.188;2024-03-17T09:20:57;102045.38;;;11.57;68.33
64908;BME280;69061;52.236;5.188;2024-03-17T09:23:24;102037.25;;;11.66;68.27
64908;BME280;69061;52.236;5.188;2024-03-17T09:25:56;102039.75;;;11.74;68.77
64908;BME280;69061;52.236;5.188;2024-03-17T09:28:22;102035.38;;;11.82;68.79
64908;BME280;69061;52.236;5.188;2024-03-17T09:30:49;102039.13;;;11.93;68.40
64908;BME280;69061;52.236;5.188;2024-03-17T09:33:17;102041.47;;;11.95;67.52
64908;BME280;69061;52.236;5.188;2024-03-17T09:35:54;102034.84;;;11.76;67.76
64908;BME280;69061;52.236;5.188;2024-03-17T09:38:21;102037.88;;;11.75;67.74
64908;BME280;69061;52.236;5.188;2024-03-17T09:40:48;102037.28;;;11.82;68.11
64908;BME280;69061;52.236;5.188;2024-03-17T09:43:18;102022.94;;;11.86;68.32
64908;BME280;69061;52.236;5.188;2024-03-17T09:45:44;102019.66;;;11.93;68.45
64908;BME280;69061;52.236;5.188;2024-03-17T09:48:14;102020.47;;;12.09;68.47
64908;BME280;69061;52.236;5.188;2024-03-17T09:50:44;102018.75;;;12.01;67.64
64908;BME280;69061;52.236;5.188;2024-03-17T09:53:16;102019.28;;;12.07;67.36
64908;BME280;69061;52.236;5.188;2024-03-17T09:55:43;102015.84;;;12.06;67.08
64908;BME280;69061;52.236;5.188;2024-03-17T09:58:15;102026.75;;;12.17;67.08
64908;BME280;69061;52.236;5.188;2024-03-17T10:00:43;102028.56;;;12.29;67.71
64908;BME280;69061;52.236;5.188;2024-03-17T10:03:10;102017.22;;;12.32;67.88
64908;BME280;69061;52.236;5.188;2024-03-17T10:05:38;102021.34;;;12.29;67.46
64908;BME280;69061;52.236;5.188;2024-03-17T10:08:05;102021.25;;;12.42;67.16
64908;BME280;69061;52.236;5.188;2024-03-17T10:10:34;102017.06;;;12.25;66.84
64908;BME280;69061;52.236;5.188;2024-03-17T10:13:01;102012.06;;;12.23;66.98
64908;BME280;69061;52.236;5.188;2024-03-17T10:15:28;102009.22;;;12.32;67.26
64908;BME280;69061;52.236;5.188;2024-03-17T10:17:55;102010.78;;;12.33;66.83
64908;BME280;69061;52.236;5.188;2024-03-17T10:20:24;102007.59;;;12.43;67.00
64908;BME280;69061;52.236;5.188;2024-03-17T10:22:58;102007.66;;;12.47;66.60
64908;BME280;69061;52.236;5.188;2024-03-17T10:25:25;101999.75;;;12.51;66.34
64908;BME280;69061;52.236;5.188;2024-03-17T10:27:55;101991.03;;;12.54;66.79
64908;BME280;69061;52.236;5.188;2024-03-17T10:30:24;101995.16;;;12.67;66.71
64908;BME280;69061;52.236;5.188;2024-03-17T10:32:55;101991.28;;;12.64;66.03
64908;BME280;69061;52.236;5.188;2024-03-17T10:35:28;101994.25;;;12.79;66.20
64908;BME280;69061;52.236;5.188;2024-03-17T10:37:57;101996.66;;;13.04;65.55
64908;BME280;69061;52.236;5.188;2024-03-17T10:40:25;101992.53;;;13.06;65.71
64908;BME280;69061;52.236;5.188;2024-03-17T10:42:52;101986.13;;;13.11;65.53
64908;BME280;69061;52.236;5.188;2024-03-17T10:45:20;101991.00;;;13.25;65.56
64908;BME280;69061;52.236;5.188;2024-03-17T10:47:48;101993.19;;;13.39;65.63
64908;BME280;69061;52.236;5.188;2024-03-17T10:50:19;101990.78;;;13.53;64.73
64908;BME280;69061;52.236;5.188;2024-03-17T10:52:48;101981.28;;;13.56;63.72
64908;BME280;69061;52.236;5.188;2024-03-17T10:55:22;101976.34;;;13.58;64.90
64908;BME280;69061;52.236;5.188;2024-03-17T10:57:50;101975.06;;;13.71;64.05
64908;BME280;69061;52.236;5.188;2024-03-17T11:00:21;101965.84;;;13.69;63.30
64908;BME280;69061;52.236;5.188;2024-03-17T11:02:49;101959.22;;;13.82;63.50
64908;BME280;69061;52.236;5.188;2024-03-17T11:05:19;101961.78;;;14.02;63.55
64908;BME280;69061;52.236;5.188;2024-03-17T11:07:48;101964.38;;;14.21;63.31
64908;BME280;69061;52.236;5.188;2024-03-17T11:10:16;101969.84;;;14.28;61.98
64908;BME280;69061;52.236;5.188;2024-03-17T11:12:45;101958.59;;;14.42;62.08
64908;BME280;69061;52.236;5.188;2024-03-17T11:15:39;101954.44;;;14.48;61.79
64908;BME280;69061;52.236;5.188;2024-03-17T11:18:33;101951.56;;;14.61;61.46
64908;BME280;69061;52.236;5.188;2024-03-17T11:21:02;101954.31;;;14.64;61.16
64908;BME280;69061;52.236;5.188;2024-03-17T11:23:34;101956.25;;;14.68;61.30
64908;BME280;69061;52.236;5.188;2024-03-17T11:26:03;101951.19;;;14.62;60.80
64908;BME280;69061;52.236;5.188;2024-03-17T11:28:47;101953.59;;;14.68;60.96
64908;BME280;69061;52.236;5.188;2024-03-17T11:34:02;101934.75;;;14.60;61.52
64908;BME280;69061;52.236;5.188;2024-03-17T11:36:32;101937.50;;;14.64;62.28
64908;BME280;69061;52.236;5.188;2024-03-17T11:38:59;101939.84;;;14.69;61.40
64908;BME280;69061;52.236;5.188;2024-03-17T11:41:38;101942.84;;;14.64;61.19
64908;BME280;69061;52.236;5.188;2024-03-17T11:44:14;101938.84;;;14.54;61.03
64908;BME280;69061;52.236;5.188;2024-03-17T11:46:41;101943.53;;;14.61;61.86
64908;BME280;69061;52.236;5.188;2024-03-17T11:49:17;101948.50;;;14.62;61.50
64908;BME280;69061;52.236;5.188;2024-03-17T11:51:45;101944.94;;;14.51;61.77
64908;BME280;69061;52.236;5.188;2024-03-17T11:54:13;101951.88;;;14.56;61.96
64908;BME280;69061;52.236;5.188;2024-03-17T11:56:44;101936.22;;;14.58;61.40
64908;BME280;69061;52.236;5.188;2024-03-17T11:59:10;101938.00;;;14.46;61.93
64908;BME280;69061;52.236;5.188;2024-03-17T12:01:37;101939.50;;;14.44;62.57
64908;BME280;69061;52.236;5.188;2024-03-17T12:04:04;101938.41;;;14.48;62.81
64908;BME280;69061;52.236;5.188;2024-03-17T12:06:32;101944.44;;;14.42;63.26
64908;BME280;69061;52.236;5.188;2024-03-17T12:09:08;101939.91;;;14.46;63.47
64908;BME280;69061;52.236;5.188;2024-03-17T12:11:36;101931.84;;;14.42;63.41
64908;BME280;69061;52.236;5.188;2024-03-17T12:14:13;101933.78;;;14.19;64.47
64908;BME280;69061;52.236;5.188;2024-03-17T12:16:46;101918.72;;;14.34;64.29
64908;BME280;69061;52.236;5.188;2024-03-17T12:19:13;101927.78;;;14.25;64.89
64908;BME280;69061;52.236;5.188;2024-03-17T12:21:44;101922.53;;;14.32;65.05
64908;BME280;69061;52.236;5.188;2024-03-17T12:24:14;101924.75;;;14.27;65.09
64908;BME280;69061;52.236;5.188;2024-03-17T12:26:42;101915.91;;;14.23;65.72
64908;BME280;69061;52.236;5.188;2024-03-17T12:29:25;101904.75;;;14.17;66.13
64908;BME280;69061;52.236;5.188;2024-03-17T12:31:53;101907.16;;;14.26;65.53
64908;BME280;69061;52.236;5.188;2024-03-17T12:34:19;101916.50;;;14.12;65.83
64908;BME280;69061;52.236;5.188;2024-03-17T12:36:48;101911.53;;;14.11;66.21
64908;BME280;69061;52.236;5.188;2024-03-17T12:39:19;101901.31;;;13.90;67.13
64908;BME280;69061;52.236;5.188;2024-03-17T12:42:01;101897.53;;;13.94;67.48
64908;BME280;69061;52.236;5.188;2024-03-17T12:44:28;101898.44;;;14.02;67.17
64908;BME280;69061;52.236;5.188;2024-03-17T12:46:55;101893.09;;;14.02;67.04
64908;BME280;69061;52.236;5.188;2024-03-17T12:49:22;101887.78;;;14.06;66.84
64908;BME280;69061;52.236;5.188;2024-03-17T12:51:52;101894.50;;;13.96;67.21
64908;BME280;69061;52.236;5.188;2024-03-17T12:54:20;101882.84;;;13.81;67.58
64908;BME280;69061;52.236;5.188;2024-03-17T12:56:48;101881.28;;;13.80;67.96
64908;BME280;69061;52.236;5.188;2024-03-17T12:59:39;101872.41;;;13.72;68.28
64908;BME280;69061;52.236;5.188;2024-03-17T13:02:24;101875.63;;;13.81;68.24
64908;BME280;69061;52.236;5.188;2024-03-17T13:05:14;101871.88;;;13.63;68.54